McAllen, Texas
Current Conditions -  °F | °C
As of 5:12 AM on Friday 28 Nov 2014 (Local Time) from KMFE Reporting Station
Haze Haze  
Wind Chill: 52°   Ceiling: Unl
Heat Index: 52°   Visibility: 3mi
Dew Point: 51°   Wind: 3mph
Humidity: 97%   Direction: 130°SE
Pressure: 30.31"   Gusts: NA
Location:  26.21°N, 98.23°W
Report Text: KMFE 281112Z AUTO 13003KT 3SM BR FEW002 11/11 A3031 RMK AO2 T01110106
Loading
Personal Weather Stations






























Interactive Weather Map New forecast layout! Learn more

10-Day Weather Forecast

Advertisements
Track Severe Weather on mobile